Time;durP1;ratioP1;P1;durP2;ratioP2;P2;SDS_P1;SDS_P2;PMS_P1;PMS_P2;Temp;Humidity;BMP_temperature;BMP_pressure;BME280_temperature;BME280_humidity;BME280_pressure;Samples;Min_cycle;Max_cycle;Signal;HPM_P1;HPM_P2
2022/05/27 00:01:27;;;;;;;4.40;2.30;;;;;;;15.10;65.70;98583.73;105887;1279;23913;-85
2022/05/27 00:03:59;;;;;;;5.20;3.10;;;;;;;15.07;65.70;98581.90;106334;1280;138060;-85
2022/05/27 00:06:42;;;;;;;3.40;2.20;;;;;;;15.04;65.88;98580.98;106293;1279;22616;-83
2022/05/27 00:09:23;;;;;;;4.20;2.40;;;;;;;15.02;65.90;98580.31;106030;1279;137409;-83
2022/05/27 00:11:51;;;;;;;4.20;1.90;;;;;;;14.99;66.01;98577.89;106014;1279;24102;-84
2022/05/27 00:14:18;;;;;;;3.20;2.30;;;;;;;14.97;66.07;98578.05;106213;1279;24270;-84
2022/05/27 00:16:45;;;;;;;3.80;2.30;;;;;;;14.94;66.26;98577.01;105913;1279;137848;-84
2022/05/27 00:19:28;;;;;;;3.30;2.10;;;;;;;14.93;66.27;98582.83;106294;1281;22797;-84
2022/05/27 00:21:56;;;;;;;3.50;2.00;;;;;;;14.94;66.52;98574.70;105923;1279;138273;-84
2022/05/27 00:24:23;;;;;;;4.30;2.30;;;;;;;14.95;66.55;98574.86;106037;1279;22773;-84
2022/05/27 00:27:08;;;;;;;3.50;2.30;;;;;;;14.96;66.46;98572.34;106117;1279;138130;-84
2022/05/27 00:29:35;;;;;;;4.20;2.70;;;;;;;14.95;66.58;98567.14;106529;1279;25250;-84
2022/05/27 00:32:16;;;;;;;8.50;2.50;;;;;;;14.95;66.76;98567.67;106238;1279;25526;-85
2022/05/27 00:34:43;;;;;;;5.10;2.40;;;;;;;14.94;66.88;98567.06;106176;1280;137901;-84
2022/05/27 00:37:24;;;;;;;5.20;2.60;;;;;;;14.92;66.83;98565.76;106297;1280;22570;-84
2022/05/27 00:39:51;;;;;;;5.30;2.20;;;;;;;14.89;66.94;98561.91;106401;1279;138366;-85
2022/05/27 00:42:21;;;;;;;4.30;2.20;;;;;;;14.88;66.83;98561.30;106113;1280;22535;-85
2022/05/27 00:44:51;;;;;;;5.20;2.60;;;;;;;14.89;66.96;98556.64;106379;1280;138419;-85
2022/05/27 00:47:36;;;;;;;7.00;2.40;;;;;;;14.89;66.96;98556.55;106427;1279;22586;-84
2022/05/27 00:50:17;;;;;;;3.70;2.10;;;;;;;14.90;67.11;98555.16;106603;1279;23320;-85
2022/05/27 00:52:47;;;;;;;3.80;2.10;;;;;;;14.90;67.07;98555.55;106274;1279;137644;-84
2022/05/27 00:55:18;;;;;;;4.30;2.20;;;;;;;14.89;66.92;98554.23;106423;1279;23468;-85
2022/05/27 00:58:03;;;;;;;3.60;2.10;;;;;;;14.88;66.87;98552.70;105868;1281;137648;-85
2022/05/27 01:00:29;;;;;;;3.70;1.80;;;;;;;14.86;66.71;98549.02;106282;1279;22538;-85
2022/05/27 01:02:58;;;;;;;3.40;1.60;;;;;;;14.84;66.82;98547.19;106067;1279;137803;-85
2022/05/27 01:05:29;;;;;;;4.80;2.10;;;;;;;14.83;66.81;98545.06;106332;1279;24299;-85
2022/05/27 01:08:04;;;;;;;4.20;1.80;;;;;;;14.83;66.62;98545.22;106623;1279;24298;-86
2022/05/27 01:10:43;;;;;;;4.50;1.80;;;;;;;14.82;66.64;98543.30;105730;1279;137899;-84
2022/05/27 01:13:34;;;;;;;4.90;1.70;;;;;;;14.84;66.86;98545.94;106302;1279;23239;-85
2022/05/27 01:16:22;;;;;;;4.10;2.10;;;;;;;14.85;66.72;98547.20;106300;1279;137529;-85
2022/05/27 01:21:49;;;;;;;5.50;2.20;;;;;;;14.82;66.71;98538.59;106033;1280;124164;-86
2022/05/27 01:24:28;;;;;;;4.60;2.30;;;;;;;14.81;66.86;98539.95;106456;1279;25330;-85
2022/05/27 01:27:22;;;;;;;3.00;2.20;;;;;;;14.79;66.90;98534.41;105902;1279;137703;-84
2022/05/27 01:30:13;;;;;;;3.60;2.30;;;;;;;14.76;66.91;98531.42;106095;1280;22586;-84
2022/05/27 01:32:51;;;;;;;5.00;2.40;;;;;;;14.73;66.91;98526.34;106067;1279;137580;-84
2022/05/27 01:35:37;;;;;;;4.40;2.40;;;;;;;14.72;67.09;98522.83;106405;1279;24277;-85
2022/05/27 01:38:10;;;;;;;4.80;2.50;;;;;;;14.71;67.18;98519.86;106047;1279;22557;-84
2022/05/27 01:40:48;;;;;;;4.60;2.80;;;;;;;14.72;67.40;98517.73;106188;1279;137487;-85
2022/05/27 01:43:56;;;;;;;6.90;3.40;;;;;;;14.71;67.59;98518.71;106013;1279;22621;-85
2022/05/27 01:46:31;;;;;;;5.90;2.80;;;;;;;14.71;67.66;98520.19;106470;1279;137436;-84
2022/05/27 01:49:18;;;;;;;4.40;2.80;;;;;;;14.70;67.80;98523.20;106190;1279;23193;-84
2022/05/27 01:52:08;;;;;;;5.30;2.70;;;;;;;14.67;67.79;98517.77;105937;1279;137502;-84
2022/05/27 01:54:52;;;;;;;3.70;2.70;;;;;;;14.65;67.99;98518.48;106272;1279;22586;-84
2022/05/27 01:57:29;;;;;;;5.60;3.20;;;;;;;14.63;67.95;98511.85;106001;1280;138479;-85
2022/05/27 02:00:10;;;;;;;;;;;;;;;14.61;68.01;98508.05;106487;1279;24320;-84
2022/05/27 02:02:54;;;;;;;;;;;;;;;14.60;68.17;98509.98;106091;1279;124138;-84
2022/05/27 02:05:26;;;;;;;9.30;3.00;;;;;;;14.58;68.36;98502.56;106272;1279;22541;-84
2022/05/27 02:07:58;;;;;;;4.90;2.50;;;;;;;14.57;68.28;98505.00;106154;1279;24389;-85
2022/05/27 02:10:51;;;;;;;6.30;2.90;;;;;;;14.55;68.38;98502.69;105972;1279;137567;-86
2022/05/27 02:13:21;;;;;;;5.40;3.00;;;;;;;14.52;68.35;98499.23;106080;1280;30537;-85
2022/05/27 02:16:04;;;;;;;3.50;2.60;;;;;;;14.48;68.33;98499.88;106393;1280;137783;-85
2022/05/27 02:19:23;;;;;;;4.40;2.70;;;;;;;14.48;68.34;98498.11;106135;1280;22592;-85
2022/05/27 02:21:56;;;;;;;4.50;3.00;;;;;;;14.47;68.57;98498.89;106142;1279;138373;-85
2022/05/27 02:24:36;;;;;;;6.00;3.00;;;;;;;14.48;68.61;98496.91;106362;1279;25282;-84
2022/05/27 02:27:14;;;;;;;4.10;2.70;;;;;;;14.48;68.58;98495.48;105906;1280;137575;-84
2022/05/27 02:29:47;;;;;;;4.60;2.40;;;;;;;14.48;68.54;98493.67;106175;1279;24337;-84
2022/05/27 02:32:22;;;;;;;3.90;2.40;;;;;;;14.47;68.39;98492.14;105748;1280;25975;-85
2022/05/27 02:35:08;;;;;;;;;;;;;;;14.45;68.34;98490.98;105899;1280;138569;-85
2022/05/27 02:37:58;;;;;;;3.90;2.90;;;;;;;14.42;68.35;98488.14;106195;1280;23678;-85
2022/05/27 02:41:04;;;;;;;4.70;2.70;;;;;;;14.42;68.45;98485.83;105877;1279;138285;-85
2022/05/27 02:43:45;;;;;;;3.90;2.20;;;;;;;14.42;68.59;98484.23;105993;1279;25704;-85
2022/05/27 02:46:26;;;;;;;6.00;2.80;;;;;;;14.42;68.52;98478.76;105908;1279;139028;-85
2022/05/27 02:49:11;;;;;;;4.10;2.40;;;;;;;14.42;68.60;98477.45;105929;1279;23927;-85
2022/05/27 02:51:50;;;;;;;5.30;2.90;;;;;;;14.42;68.72;98476.67;105839;1279;138671;-85
2022/05/27 02:54:43;;;;;;;6.20;2.70;;;;;;;14.42;68.70;98475.58;106008;1279;31794;-84
2022/05/27 02:57:42;;;;;;;4.80;2.40;;;;;;;14.42;68.52;98471.91;106431;1279;137511;-84
2022/05/27 03:00:26;;;;;;;10.20;2.80;;;;;;;14.42;68.50;98468.40;106015;1279;22557;-85
2022/05/27 03:02:59;;;;;;;7.00;2.80;;;;;;;14.41;68.49;98467.73;105625;1279;137887;-84
2022/05/27 03:05:40;;;;;;;6.80;2.60;;;;;;;14.42;68.50;98464.84;105815;1281;25351;-85
2022/05/27 03:08:10;;;;;;;6.20;2.60;;;;;;;14.44;68.55;98469.23;106041;1279;22607;-84
2022/05/27 03:10:51;;;;;;;3.60;2.50;;;;;;;14.47;68.65;98467.42;105839;1279;137884;-84
2022/05/27 03:13:27;;;;;;;4.50;2.80;;;;;;;14.50;68.69;98471.00;106211;1279;24066;-84
2022/05/27 03:16:20;;;;;;;6.60;2.50;;;;;;;14.51;68.54;98468.36;105951;1280;137506;-84
2022/05/27 03:18:50;;;;;;;4.90;2.40;;;;;;;14.51;68.37;98469.46;105937;1279;25596;-84
2022/05/27 03:21:47;;;;;;;6.60;2.60;;;;;;;14.52;68.21;98468.09;105849;1280;137884;-84
2022/05/27 03:24:56;;;;;;;3.60;2.20;;;;;;;14.51;68.24;98462.34;106041;1279;22711;-85
2022/05/27 03:27:46;;;;;;;4.70;2.60;;;;;;;14.51;68.13;98461.41;105973;1279;137516;-85
2022/05/27 03:30:22;;;;;;;4.70;2.00;;;;;;;14.53;68.01;98463.33;106162;1279;25274;-85
2022/05/27 03:33:17;;;;;;;8.80;2.10;;;;;;;14.56;67.94;98461.04;105966;1279;138957;-85
2022/05/27 03:36:04;;;;;;;5.90;2.20;;;;;;;14.59;68.03;98460.80;106059;1279;25388;-85
2022/05/27 03:39:00;;;;;;;3.50;2.00;;;;;;;14.62;67.89;98459.10;105945;1279;22560;-85
2022/05/27 03:41:49;;;;;;;3.80;2.00;;;;;;;14.66;67.63;98459.39;106024;1279;22544;-85
2022/05/27 03:44:26;;;;;;;4.40;1.90;;;;;;;14.68;67.37;98458.35;105969;1279;22605;-84
2022/05/27 03:46:59;;;;;;;3.60;1.90;;;;;;;14.69;67.32;98458.63;105762;1280;137617;-85
2022/05/27 03:49:26;;;;;;;3.70;2.00;;;;;;;14.70;67.29;98455.28;106053;1279;22541;-85
2022/05/27 03:52:05;;;;;;;2.40;2.10;;;;;;;14.70;67.43;98453.20;105987;1279;137689;-85
2022/05/27 03:54:35;;;;;;;4.30;1.90;;;;;;;14.72;67.36;98454.09;105987;1279;25343;-85
2022/05/27 03:57:04;;;;;;;3.80;1.90;;;;;;;14.73;67.26;98450.30;106320;1278;22531;-85
2022/05/27 03:59:31;;;;;;;3.30;1.80;;;;;;;14.76;67.22;98451.29;105993;1279;138352;-85
2022/05/27 04:02:12;;;;;;;4.10;1.90;;;;;;;14.83;66.98;98446.74;106062;1279;22538;-85
2022/05/27 04:04:42;;;;;;;6.20;2.10;;;;;;;14.88;66.84;98440.00;106113;1280;138431;-85
2022/05/27 04:07:09;;;;;;;5.40;2.10;;;;;;;14.94;67.15;98437.92;106365;1280;22569;-85
2022/05/27 04:09:39;;;;;;;2.30;1.80;;;;;;;14.99;66.93;98437.96;106124;1279;137804;-85
2022/05/27 04:12:20;;;;;;;3.10;2.00;;;;;;;15.03;66.70;98433.86;106351;1280;24483;-84
2022/05/27 04:14:52;;;;;;;5.40;2.00;;;;;;;15.04;66.49;98435.73;106246;1279;22644;-85
2022/05/27 04:17:30;;;;;;;5.80;2.20;;;;;;;15.07;66.54;98432.70;106394;1279;137553;-85
2022/05/27 04:20:08;;;;;;;4.70;1.70;;;;;;;15.07;66.62;98431.55;106428;1279;22545;-85
2022/05/27 04:22:42;;;;;;;4.10;2.00;;;;;;;15.06;66.36;98428.14;105985;1279;137795;-85
2022/05/27 04:25:10;;;;;;;5.80;1.70;;;;;;;15.06;66.38;98427.87;106118;1280;23792;-85
2022/05/27 04:27:41;;;;;;;3.40;1.50;;;;;;;15.07;66.77;98422.05;106842;1279;137639;-85
2022/05/27 04:30:14;;;;;;;4.20;1.50;;;;;;;15.09;66.64;98421.80;106309;1279;25381;-85
2022/05/27 04:32:45;;;;;;;1.90;1.30;;;;;;;15.13;66.72;98425.40;106329;1280;23645;-84
2022/05/27 04:35:25;;;;;;;2.80;1.50;;;;;;;15.17;66.25;98422.44;106120;1279;137567;-83
2022/05/27 04:37:52;;;;;;;2.70;1.40;;;;;;;15.22;66.25;98423.41;106263;1280;25275;-84
2022/05/27 04:40:20;;;;;;;2.70;1.30;;;;;;;15.27;66.30;98426.42;106062;1280;138271;-84
2022/05/27 04:42:48;;;;;;;3.00;1.50;;;;;;;15.33;66.18;98426.36;106214;1279;25383;-84
2022/05/27 04:45:30;;;;;;;2.20;1.20;;;;;;;15.39;65.74;98421.64;106387;1279;137718;-84
2022/05/27 04:48:00;;;;;;;2.80;1.20;;;;;;;15.44;65.61;98417.13;106366;1279;22542;-85
2022/05/27 04:50:45;;;;;;;5.30;1.20;;;;;;;15.48;64.96;98416.73;106538;1279;25323;-84
2022/05/27 04:53:28;;;;;;;2.80;1.50;;;;;;;15.53;65.09;98407.28;106160;1279;137405;-84
2022/05/27 04:55:57;;;;;;;1.90;1.00;;;;;;;15.59;64.63;98403.87;107041;1279;23961;-83
2022/05/27 04:58:26;;;;;;;4.80;1.40;;;;;;;15.64;64.47;98405.11;106129;1279;137438;-83
2022/05/27 05:00:58;;;;;;;3.10;1.20;;;;;;;15.70;64.58;98402.02;106381;1279;24293;-85
2022/05/27 05:03:25;;;;;;;2.40;1.30;;;;;;;15.76;64.65;98398.50;106116;1279;138273;-84
2022/05/27 05:05:52;;;;;;;3.70;2.10;;;;;;;15.84;64.70;98397.83;106333;1280;24271;-84
2022/05/27 05:08:33;;;;;;;3.00;1.30;;;;;;;15.92;64.68;98400.30;106240;1280;26459;-85
2022/05/27 05:11:04;;;;;;;3.90;1.60;;;;;;;16.02;64.22;98393.56;106021;1279;137627;-86
2022/05/27 05:13:33;;;;;;;6.80;1.80;;;;;;;16.08;63.99;98388.59;106323;1280;26492;-85
2022/05/27 05:16:00;;;;;;;4.40;1.30;;;;;;;16.17;64.10;98390.79;106168;1279;137575;-86
2022/05/27 05:18:29;;;;;;;1.70;1.40;;;;;;;16.26;63.89;98394.31;106084;1281;23239;-85
2022/05/27 05:20:59;;;;;;;4.80;1.50;;;;;;;16.34;63.66;98390.74;106587;1279;24374;-84
2022/05/27 05:23:26;;;;;;;3.20;1.30;;;;;;;16.40;63.39;98390.38;106357;1280;137522;-84
2022/05/27 05:25:53;;;;;;;2.80;1.50;;;;;;;16.47;63.25;98385.44;106164;1280;23574;-84
2022/05/27 05:28:20;;;;;;;4.60;1.30;;;;;;;16.54;63.09;98378.63;106326;1280;138263;-84
2022/05/27 05:30:47;;;;;;;2.60;1.20;;;;;;;16.58;62.49;98374.97;106136;1279;25601;-84
2022/05/27 05:33:14;;;;;;;3.40;1.60;;;;;;;16.64;62.51;98370.19;106646;1279;22565;-85
2022/05/27 05:35:46;;;;;;;5.10;1.30;;;;;;;16.70;62.38;98372.40;106418;1279;138223;-85
2022/05/27 05:38:19;;;;;;;3.00;1.10;;;;;;;16.76;62.12;98367.18;106241;1280;25260;-84
2022/05/27 05:40:47;;;;;;;3.20;1.20;;;;;;;16.79;62.28;98372.21;106082;1279;137849;-85
2022/05/27 05:43:27;;;;;;;2.10;1.30;;;;;;;16.82;61.62;98371.86;106772;1281;22571;-84
2022/05/27 05:46:08;;;;;;;2.20;1.30;;;;;;;16.82;61.15;98366.53;106554;1280;137952;-84
2022/05/27 05:48:39;;;;;;;2.00;1.40;;;;;;;16.83;60.67;98367.75;106446;1280;25331;-84
2022/05/27 05:51:06;;;;;;;6.60;1.50;;;;;;;16.85;60.53;98363.66;106269;1280;22568;-84
2022/05/27 05:53:35;;;;;;;;;;;;;;;16.90;60.54;98365.88;106488;1279;138361;-84
2022/05/27 05:56:02;;;;;;;3.00;1.40;;;;;;;16.88;60.13;98364.46;106891;1279;22574;-84
2022/05/27 05:58:29;;;;;;;2.10;1.10;;;;;;;16.90;60.33;98367.42;106354;1279;137626;-84
2022/05/27 06:00:56;;;;;;;5.40;1.70;;;;;;;16.93;60.15;98364.04;106457;1279;24732;-84
2022/05/27 06:03:27;;;;;;;6.30;1.20;;;;;;;16.98;60.36;98361.25;106494;1279;23054;-84
2022/05/27 06:05:57;;;;;;;2.70;1.30;;;;;;;17.03;60.23;98356.08;106188;1279;137399;-84
2022/05/27 06:08:39;;;;;;;4.50;1.40;;;;;;;17.09;60.32;98356.91;106565;1279;22632;-84
2022/05/27 06:11:07;;;;;;;3.50;1.00;;;;;;;17.15;60.18;98351.00;106343;1279;138062;-84
2022/05/27 06:13:40;;;;;;;3.00;1.20;;;;;;;17.16;59.23;98353.14;106492;1279;22581;-84
2022/05/27 06:16:08;;;;;;;2.70;1.20;;;;;;;17.16;59.10;98357.12;106343;1279;139069;-83
2022/05/27 06:18:37;;;;;;;3.40;1.20;;;;;;;17.19;59.37;98345.39;107091;1280;23310;-83
2022/05/27 06:21:04;;;;;;;2.90;1.20;;;;;;;17.24;59.24;98344.41;106453;1279;22563;-84
2022/05/27 06:23:34;;;;;;;3.40;1.10;;;;;;;17.31;59.03;98345.23;106425;1279;137823;-83
2022/05/27 06:26:05;;;;;;;4.80;1.20;;;;;;;17.37;58.87;98340.44;106747;1280;22589;-82
2022/05/27 06:36:40;;;;;;;2.40;1.10;;;;;;;17.62;57.38;98338.14;106417;1279;24267;-84
2022/05/27 06:39:08;;;;;;;1.20;0.80;;;;;;;17.69;57.36;98334.05;106911;1279;22569;-84
2022/05/27 06:41:35;;;;;;;1.20;1.00;;;;;;;17.76;57.06;98325.70;106283;1279;138189;-84
2022/05/27 06:44:04;;;;;;;2.50;0.80;;;;;;;17.83;57.19;98321.91;106507;1279;22567;-84
2022/05/27 06:46:32;;;;;;;5.00;1.10;;;;;;;17.92;57.15;98317.19;106634;1279;137300;-82
2022/05/27 06:49:00;;;;;;;2.70;1.00;;;;;;;18.03;57.27;98315.77;106853;1279;23144;-84
2022/05/27 06:51:30;;;;;;;1.30;0.80;;;;;;;18.11;56.54;98315.21;106665;1279;23343;-83
2022/05/27 06:54:00;;;;;;;1.10;0.80;;;;;;;18.15;55.86;98309.53;107000;1280;137314;-84
2022/05/27 06:56:27;;;;;;;1.40;0.90;;;;;;;18.19;55.91;98306.27;106546;1280;22731;-84
2022/05/27 06:59:00;;;;;;;4.60;1.10;;;;;;;18.25;55.92;98296.59;106228;1279;137533;-83
2022/05/27 07:01:27;;;;;;;6.60;1.00;;;;;;;18.31;55.79;98298.64;106492;1279;22557;-84
2022/05/27 07:03:54;;;;;;;6.50;1.00;;;;;;;18.36;55.32;98292.27;106335;1279;137511;-83
2022/05/27 07:06:25;;;;;;;6.90;1.30;;;;;;;18.40;55.05;98281.63;106358;1279;22567;-84
2022/05/27 07:08:52;;;;;;;2.80;0.90;;;;;;;18.48;54.75;98283.65;106802;1279;23089;-83
2022/05/27 07:11:20;;;;;;;1.50;0.90;;;;;;;18.54;54.05;98282.55;106355;1279;137413;-82
2022/05/27 07:13:48;;;;;;;3.30;1.00;;;;;;;18.61;54.07;98282.88;106451;1279;22545;-84
2022/05/27 07:16:15;;;;;;;2.40;1.00;;;;;;;18.69;54.25;98282.34;106409;1279;138082;-90
2022/05/27 07:18:44;;;;;;;1.70;0.90;;;;;;;18.83;53.82;98282.45;106383;1280;22606;-88
2022/05/27 07:21:16;;;;;;;3.50;1.10;;;;;;;18.91;53.80;98278.78;106740;1279;24992;-80
2022/05/27 07:23:53;;;;;;;3.80;0.80;;;;;;;19.02;53.63;98275.88;106269;1280;138477;-87
2022/05/27 07:26:22;;;;;;;3.50;1.00;;;;;;;19.12;53.24;98270.61;106773;1280;24230;-82
2022/05/27 07:28:48;;;;;;;4.20;1.00;;;;;;;19.19;52.69;98268.23;106276;1281;137692;-85
2022/05/27 07:31:17;;;;;;;7.40;1.00;;;;;;;19.26;52.67;98261.06;106530;1279;24399;-84
2022/05/27 07:33:47;;;;;;;4.30;1.00;;;;;;;19.34;52.57;98256.96;106601;1280;137646;-84
2022/05/27 07:36:14;;;;;;;1.50;0.90;;;;;;;19.42;52.70;98255.98;106684;1279;24263;-84
2022/05/27 07:38:41;;;;;;;2.70;0.90;;;;;;;19.52;52.60;98249.75;106454;1279;22861;-85
2022/05/27 07:41:08;;;;;;;3.80;1.00;;;;;;;19.65;52.87;98249.19;106806;1279;137748;-84
2022/05/27 07:43:40;;;;;;;3.90;1.20;;;;;;;19.83;52.23;98245.34;106282;1279;22866;-83
2022/05/27 07:46:07;;;;;;;3.00;0.90;;;;;;;20.04;52.31;98246.85;106685;1279;137777;-83
2022/05/27 07:48:36;;;;;;;3.90;0.80;;;;;;;20.25;51.71;98249.00;106370;1279;22789;-83
2022/05/27 07:51:05;;;;;;;3.40;0.70;;;;;;;20.47;50.66;98245.48;106484;1279;25472;-83
2022/05/27 07:53:35;;;;;;;2.10;0.80;;;;;;;20.69;50.24;98244.48;106036;1280;137757;-85
2022/05/27 07:56:09;;;;;;;5.60;1.00;;;;;;;20.87;49.06;98230.23;106089;1281;25278;-83
2022/05/27 07:58:36;;;;;;;2.30;0.70;;;;;;;20.98;48.69;98221.80;106576;1280;137807;-83
2022/05/27 08:01:06;;;;;;;2.60;1.00;;;;;;;21.05;48.78;98223.14;106375;1279;22586;-84
2022/05/27 08:03:33;;;;;;;;;;;;;;;21.18;48.53;98213.15;106266;1279;22599;-84
2022/05/27 08:06:04;;;;;;;3.60;0.90;;;;;;;21.25;47.92;98205.35;106223;1279;123759;-86
2022/05/27 08:08:36;;;;;;;2.80;0.80;;;;;;;21.31;47.85;98190.11;106677;1279;22616;-83
2022/05/27 08:11:09;;;;;;;2.40;0.70;;;;;;;21.45;48.24;98200.08;106187;1280;137707;-85
2022/05/27 08:13:43;;;;;;;5.30;0.80;;;;;;;21.56;46.97;98194.10;106734;1279;22715;-83
2022/05/27 08:16:11;;;;;;;4.30;1.00;;;;;;;21.63;46.96;98189.05;106528;1279;138858;-85
2022/05/27 08:18:41;;;;;;;2.80;0.80;;;;;;;21.70;46.85;98183.88;107583;1279;22595;-82
2022/05/27 08:21:08;;;;;;;3.40;0.70;;;;;;;21.73;46.76;98180.95;106595;1281;22563;-84
2022/05/27 08:23:41;;;;;;;4.20;0.90;;;;;;;21.81;46.35;98177.42;106346;1281;138010;-84
2022/05/27 08:26:10;;;;;;;4.10;1.00;;;;;;;21.84;45.64;98180.95;105741;1279;1060438;-84
2022/05/27 08:28:42;;;;;;;8.00;1.20;;;;;;;21.83;44.87;98179.35;106636;1279;138171;-85
2022/05/27 08:31:09;;;;;;;6.90;1.70;;;;;;;21.74;44.47;98177.81;106867;1279;22683;-83
2022/05/27 08:39:08;;;;;;;5.00;0.80;;;;;;;21.53;45.82;98179.20;106792;1279;22556;-84
2022/05/27 08:41:57;;;;;;;6.20;1.30;;;;;;;21.50;45.38;98176.89;106685;1279;138111;-82
2022/05/27 08:44:40;;;;;;;1.60;0.80;;;;;;;21.49;44.81;98174.98;106196;1279;24270;-83
2022/05/27 08:47:46;;;;;;;3.60;0.90;;;;;;;21.48;44.67;98168.20;106951;1279;138164;-83
2022/05/27 08:50:33;;;;;;;7.40;1.40;;;;;;;21.57;44.70;98159.33;106366;1279;22575;-83
2022/05/27 08:53:24;;;;;;;7.00;1.10;;;;;;;21.73;45.12;98156.55;106331;1279;137851;-83
2022/05/27 09:01:42;;;;;;;7.60;1.50;;;;;;;22.25;42.73;98142.15;106813;1279;30382;-82
2022/05/27 09:04:19;;;;;;;10.20;1.10;;;;;;;22.32;42.67;98137.80;106740;1279;137413;-84
2022/05/27 09:07:10;;;;;;;4.70;1.10;;;;;;;22.41;42.82;98135.96;106386;1279;24270;-85
2022/05/27 09:09:40;;;;;;;9.60;1.50;;;;;;;22.42;42.47;98135.67;106236;1279;24267;-85
2022/05/27 09:12:37;;;;;;;5.10;1.10;;;;;;;22.38;42.42;98138.12;106072;1280;137793;-83
2022/05/27 09:15:14;;;;;;;3.90;0.80;;;;;;;22.24;42.45;98122.73;106360;1279;22604;-84
2022/05/27 09:17:54;;;;;;;;;;;;;;;22.16;43.23;98126.63;106169;1279;138465;-84
2022/05/27 09:20:37;;;;;;;3.10;1.10;;;;;;;22.03;43.46;98120.31;106341;1279;22697;-82
2022/05/27 09:23:23;;;;;;;8.40;1.20;;;;;;;21.93;43.43;98120.05;105952;1279;137709;-83
2022/05/27 09:26:16;;;;;;;7.90;1.10;;;;;;;21.81;42.99;98114.67;107003;1279;22531;-84
2022/05/27 09:28:47;;;;;;;4.80;1.20;;;;;;;21.74;43.42;98113.52;106273;1279;137835;-84
2022/05/27 09:31:45;;;;;;;5.00;0.80;;;;;;;21.81;43.20;98104.73;106206;1279;24269;-85
2022/05/27 09:34:13;;;;;;;6.80;1.40;;;;;;;22.04;42.86;98099.37;106448;1279;138053;-84
2022/05/27 09:36:45;;;;;;;3.80;0.70;;;;;;;22.24;41.89;98092.14;106099;1280;24391;-85
2022/05/27 09:39:15;;;;;;;5.00;0.70;;;;;;;22.37;42.00;98076.66;106737;1280;24727;-83
2022/05/27 09:41:57;;;;;;;7.90;0.80;;;;;;;22.55;41.60;98084.36;106738;1279;137842;-85
2022/05/27 09:44:36;;;;;;;4.70;0.90;;;;;;;22.60;41.25;98092.25;106893;1279;22706;-85
2022/05/27 09:47:18;;;;;;;4.70;1.00;;;;;;;22.60;41.72;98094.23;106112;1281;138699;-84
2022/05/27 09:49:57;;;;;;;7.70;1.10;;;;;;;22.61;41.91;98093.17;106920;1279;22599;-84
2022/05/27 09:52:32;;;;;;;4.90;0.80;;;;;;;22.58;41.81;98095.52;106800;1279;137415;-84
2022/05/27 09:55:34;;;;;;;7.20;1.00;;;;;;;22.55;41.67;98087.78;106539;1279;22598;-84
2022/05/27 09:58:06;;;;;;;4.00;0.80;;;;;;;22.59;41.97;98080.58;106332;1279;25512;-85
2022/05/27 10:00:49;;;;;;;13.90;1.20;;;;;;;22.70;42.38;98071.65;106703;1279;137086;-83
2022/05/27 10:03:36;;;;;;;7.20;0.90;;;;;;;22.84;41.60;98064.18;106240;1280;30558;-84
2022/05/27 10:06:19;;;;;;;5.40;0.90;;;;;;;22.96;41.58;98067.77;106413;1280;137599;-83
2022/05/27 10:08:57;;;;;;;3.80;0.90;;;;;;;23.00;40.99;98071.79;106509;1280;22592;-84
2022/05/27 10:11:29;;;;;;;4.00;0.70;;;;;;;22.89;41.08;98069.06;106957;1279;138808;-86
2022/05/27 10:14:12;;;;;;;5.80;0.90;;;;;;;22.72;41.18;98055.95;106697;1279;22555;-85
2022/05/27 10:17:13;;;;;;;4.10;0.80;;;;;;;22.54;41.68;98053.16;107012;1279;137701;-89
2022/05/27 10:19:45;;;;;;;2.70;0.90;;;;;;;22.40;42.26;98046.34;106652;1279;22583;-85
2022/05/27 10:22:26;;;;;;;6.10;0.80;;;;;;;22.33;42.89;98048.35;106591;1280;137657;-85
2022/05/27 10:25:03;;;;;;;6.40;1.20;;;;;;;22.29;43.49;98040.96;106775;1280;23301;-83
2022/05/27 10:27:41;;;;;;;6.40;0.80;;;;;;;22.21;43.19;98035.83;106631;1280;22609;-82
2022/05/27 10:30:24;;;;;;;4.30;1.00;;;;;;;22.13;43.14;98034.23;106192;1280;138452;-84
2022/05/27 10:32:53;;;;;;;3.80;0.90;;;;;;;22.02;43.57;98034.17;106165;1279;24211;-87
2022/05/27 10:35:43;;;;;;;5.50;0.90;;;;;;;21.95;44.14;98032.70;106333;1279;137901;-83
2022/05/27 10:38:56;;;;;;;9.00;1.80;;;;;;;21.91;44.48;98031.34;106756;1279;22563;-85
2022/05/27 10:41:41;;;;;;;6.20;1.10;;;;;;;21.90;43.26;98032.24;106616;1279;137563;-82
2022/05/27 10:44:30;;;;;;;11.30;1.60;;;;;;;21.89;43.63;98022.36;106846;1281;30403;-83
2022/05/27 10:47:56;;;;;;;7.60;0.90;;;;;;;21.90;43.72;98016.89;106798;1281;137798;-82
2022/05/27 10:51:03;;;;;;;4.10;1.00;;;;;;;21.81;43.56;98012.21;106419;1281;25338;-83
2022/05/27 10:54:42;;;;;;;7.20;1.70;;;;;;;21.65;43.77;98011.59;106681;1280;137809;-82
2022/05/27 11:04:47;;;;;;;3.50;1.00;;;;;;;21.69;44.68;97999.55;105960;1286;22593;-84
2022/05/27 11:07:27;;;;;;;4.30;0.90;;;;;;;21.71;44.38;97999.98;105580;1287;136982;-83
2022/05/27 11:10:13;;;;;;;5.00;0.90;;;;;;;21.67;44.25;97989.81;105450;1290;22644;-84
2022/05/27 11:16:12;;;;;;;4.30;1.00;;;;;;;21.51;45.33;97990.43;106296;1277;254972;-85
2022/05/27 11:19:08;;;;;;;6.40;1.00;;;;;;;21.43;45.18;97987.92;106359;1277;137051;-82
2022/05/27 11:22:11;;;;;;;8.10;1.30;;;;;;;21.29;45.60;97982.67;106531;1277;24435;-84
2022/05/27 11:25:13;;;;;;;3.70;1.10;;;;;;;21.16;46.47;97983.08;106449;1276;136853;-85
2022/05/27 11:28:06;;;;;;;5.20;0.90;;;;;;;21.02;46.36;97981.10;106704;1276;24374;-85
2022/05/27 11:31:27;;;;;;;7.10;1.20;;;;;;;20.90;46.57;97976.66;106536;1276;136758;-86
2022/05/27 11:33:55;;;;;;;5.00;1.20;;;;;;;20.79;46.85;97981.60;106492;1277;22600;-83
2022/05/27 11:36:50;;;;;;;10.50;1.00;;;;;;;20.69;46.97;97974.75;106373;1277;136880;-85
2022/05/27 11:39:34;;;;;;;4.50;1.00;;;;;;;20.59;47.12;97972.17;106735;1277;23916;-84
2022/05/27 11:42:14;;;;;;;5.30;1.80;;;;;;;20.49;47.57;97974.23;106166;1277;137104;-85
2022/05/27 11:45:00;;;;;;;7.20;1.50;;;;;;;20.42;47.92;97972.10;106465;1277;22566;-85
2022/05/27 11:47:46;;;;;;;9.10;1.00;;;;;;;20.36;48.29;97969.13;106348;1277;137196;-85
2022/05/27 11:50:44;;;;;;;8.70;1.40;;;;;;;20.30;48.46;97965.11;106449;1278;22554;-88
2022/05/27 11:53:14;;;;;;;;;;;;;;;20.26;48.79;97965.65;106722;1277;137120;-84
2022/05/27 11:56:09;;;;;;;3.70;0.90;;;;;;;20.21;48.90;97964.81;106397;1277;22659;-81
2022/05/27 11:58:49;;;;;;;5.70;0.90;;;;;;;20.16;49.14;97968.67;106216;1277;24263;-82
2022/05/27 12:01:37;;;;;;;8.80;1.40;;;;;;;20.13;49.51;97975.66;106753;1277;136745;-84
2022/05/27 12:04:33;;;;;;;3.20;1.30;;;;;;;20.04;51.55;97985.09;106361;1277;25377;-89
2022/05/27 12:07:05;;;;;;;2.30;1.20;;;;;;;19.58;54.83;97985.35;106133;1277;136872;-84
2022/05/27 12:09:44;;;;;;;4.30;1.30;;;;;;;19.13;56.72;97989.33;106401;1277;22618;-86
2022/05/27 12:12:19;;;;;;;2.90;1.40;;;;;;;18.78;58.44;97983.11;106325;1278;136766;-84
2022/05/27 12:15:42;;;;;;;5.50;2.10;;;;;;;18.48;60.41;97990.02;106143;1277;22693;-85
2022/05/27 12:18:13;;;;;;;1.90;1.40;;;;;;;18.19;63.17;97998.40;106418;1278;136920;-80
2022/05/27 12:20:41;;;;;;;2.60;1.50;;;;;;;17.88;67.09;98010.66;105980;1277;22564;-78
2022/05/27 12:23:12;;;;;;;5.40;2.40;;;;;;;17.49;69.87;98026.42;106276;1277;137766;-78
2022/05/27 12:25:48;;;;;;;6.40;2.50;;;;;;;17.12;71.52;98024.71;106203;1277;22631;-79
2022/05/27 12:28:24;;;;;;;6.10;1.90;;;;;;;16.85;73.49;98018.61;106459;1277;22664;-79
2022/05/27 12:30:52;;;;;;;3.30;1.90;;;;;;;16.68;74.13;98017.78;105851;1279;137461;-79
2022/05/27 12:33:21;;;;;;;;;;;;;;;16.56;75.03;98019.08;106416;1279;22528;-81
2022/05/27 12:36:00;;;;;;;3.00;1.80;;;;;;;16.49;75.43;98018.14;106159;1277;124251;-81
2022/05/27 12:38:30;;;;;;;4.10;2.00;;;;;;;16.42;76.31;98023.21;106472;1277;22580;-78
2022/05/27 12:41:16;;;;;;;6.40;2.40;;;;;;;16.35;77.08;98026.55;106205;1277;137379;-79
2022/05/27 12:44:01;;;;;;;6.50;2.70;;;;;;;16.30;77.29;98035.02;105940;1277;25533;-78
2022/05/27 12:46:40;;;;;;;3.30;2.10;;;;;;;16.26;77.60;98034.03;106570;1277;30175;-78